createdAt,value
2023-03-03T00:01:21.908Z,39.20
2023-03-03T00:03:52.957Z,40.00
2023-03-03T00:06:24.570Z,42.80
2023-03-03T00:08:56.079Z,42.00
2023-03-03T00:11:26.908Z,42.90
2023-03-03T00:14:00.925Z,41.20
2023-03-03T00:16:37.094Z,41.10
2023-03-03T00:19:16.275Z,41.00
2023-03-03T00:21:49.217Z,38.60
2023-03-03T00:24:23.363Z,37.40
2023-03-03T00:26:56.052Z,37.60
2023-03-03T00:29:41.018Z,37.10
2023-03-03T00:32:26.314Z,37.80
2023-03-03T00:35:02.802Z,36.80
2023-03-03T00:37:35.685Z,37.70
2023-03-03T00:40:24.963Z,37.80
2023-03-03T00:42:57.612Z,36.90
2023-03-03T00:45:35.896Z,40.00
2023-03-03T00:48:24.259Z,37.40
2023-03-03T00:50:56.562Z,39.90
2023-03-03T00:53:28.618Z,39.30
2023-03-03T00:55:59.745Z,37.90
2023-03-03T00:58:31.185Z,35.70
2023-03-03T01:01:02.372Z,34.40
2023-03-03T01:03:41.470Z,38.00
2023-03-03T01:06:13.211Z,34.80
2023-03-03T01:08:43.956Z,33.70
2023-03-03T01:11:17.800Z,34.40
2023-03-03T01:13:51.289Z,33.50
2023-03-03T01:16:22.628Z,34.20
2023-03-03T01:18:54.651Z,32.50
2023-03-03T01:21:26.035Z,33.40
2023-03-03T01:23:56.806Z,35.00
2023-03-03T01:26:27.638Z,36.10
2023-03-03T01:28:58.370Z,33.20
2023-03-03T01:31:29.801Z,31.90
2023-03-03T01:34:00.777Z,37.20
2023-03-03T01:36:31.815Z,33.60
2023-03-03T01:39:03.499Z,37.00
2023-03-03T01:41:34.819Z,31.20
2023-03-03T01:44:05.664Z,31.20
2023-03-03T01:46:53.016Z,31.80
2023-03-03T01:49:28.077Z,31.10
2023-03-03T01:52:02.502Z,33.90
2023-03-03T01:54:39.758Z,30.80
2023-03-03T01:57:17.085Z,30.40
2023-03-03T01:59:51.218Z,32.30
2023-03-03T02:02:23.182Z,31.20
2023-03-03T02:04:53.928Z,31.80
2023-03-03T02:07:27.138Z,32.30
2023-03-03T02:10:05.645Z,32.60
2023-03-03T02:12:39.842Z,33.70
2023-03-03T02:15:28.225Z,31.20
2023-03-03T02:18:02.460Z,30.80
2023-03-03T02:20:46.238Z,32.20
2023-03-03T02:23:23.653Z,31.70
2023-03-03T02:26:11.124Z,30.10
2023-03-03T02:28:43.983Z,31.90
2023-03-03T02:31:18.109Z,30.00
2023-03-03T02:33:51.608Z,32.60
2023-03-03T02:36:25.022Z,30.80
2023-03-03T02:39:03.969Z,31.20
2023-03-03T02:41:40.619Z,33.70
2023-03-03T02:44:16.032Z,31.50
2023-03-03T02:46:49.220Z,32.30
2023-03-03T02:49:24.003Z,32.10
2023-03-03T02:51:55.519Z,31.00
2023-03-03T02:54:28.408Z,32.60
2023-03-03T02:56:59.621Z,32.40
2023-03-03T02:59:31.988Z,33.60
2023-03-03T03:04:36.298Z,28.90
2023-03-03T03:07:08.741Z,31.90
2023-03-03T03:09:40.534Z,30.50
2023-03-03T03:12:12.377Z,32.40
2023-03-03T03:14:43.242Z,33.50
2023-03-03T03:17:14.210Z,32.90
2023-03-03T03:19:47.385Z,34.20
2023-03-03T03:22:19.709Z,35.30
2023-03-03T03:24:51.018Z,33.80
2023-03-03T03:27:23.570Z,34.30
2023-03-03T03:29:54.860Z,33.30
2023-03-03T03:32:26.419Z,33.10
2023-03-03T03:34:57.231Z,33.90
2023-03-03T03:37:30.711Z,32.60
2023-03-03T03:40:01.913Z,34.00
2023-03-03T03:42:34.033Z,33.00
2023-03-03T03:45:05.243Z,33.40
2023-03-03T03:47:37.172Z,31.80
2023-03-03T03:50:10.335Z,32.60
2023-03-03T03:52:43.687Z,31.80
2023-03-03T03:55:15.208Z,31.30
2023-03-03T03:57:46.374Z,32.00
2023-03-03T04:00:18.472Z,35.10
2023-03-03T04:02:53.995Z,32.20
2023-03-03T04:05:25.665Z,32.20
2023-03-03T04:07:57.989Z,33.00
2023-03-03T04:10:28.945Z,32.80
2023-03-03T04:13:00.134Z,33.30
2023-03-03T04:15:31.899Z,34.20
2023-03-03T04:18:03.580Z,34.40
2023-03-03T04:20:34.727Z,36.30
2023-03-03T04:23:05.687Z,34.70
2023-03-03T04:25:36.504Z,33.80
2023-03-03T04:28:14.995Z,33.50
2023-03-03T04:30:46.147Z,32.70
2023-03-03T04:33:18.166Z,32.80
2023-03-03T04:35:50.035Z,34.90
2023-03-03T04:38:21.187Z,33.10
2023-03-03T04:40:52.374Z,33.10
2023-03-03T04:43:23.387Z,35.00
2023-03-03T04:45:54.311Z,34.10
2023-03-03T04:48:25.461Z,35.00
2023-03-03T04:50:56.626Z,35.40
2023-03-03T04:53:27.507Z,38.00
2023-03-03T04:55:58.291Z,38.80
2023-03-03T04:58:29.499Z,36.40
2023-03-03T05:01:00.698Z,38.50
2023-03-03T05:03:32.657Z,39.30
2023-03-03T05:06:03.509Z,40.10
2023-03-03T05:08:34.259Z,36.10
2023-03-03T05:11:05.859Z,37.20
2023-03-03T05:13:36.615Z,40.90
2023-03-03T05:16:08.593Z,38.70
2023-03-03T05:18:39.524Z,38.60
2023-03-03T05:21:10.435Z,40.50
2023-03-03T05:23:41.398Z,38.00
2023-03-03T05:26:12.038Z,37.60
2023-03-03T05:28:43.142Z,37.50
2023-03-03T05:31:13.915Z,37.80
2023-03-03T05:33:44.580Z,39.20
2023-03-03T05:36:15.261Z,40.60
2023-03-03T05:38:46.001Z,38.70
2023-03-03T05:41:16.712Z,40.20
2023-03-03T05:43:47.625Z,42.00
2023-03-03T05:46:18.732Z,46.20
2023-03-03T05:48:49.548Z,46.80
2023-03-03T05:51:20.246Z,45.20
2023-03-03T05:53:50.950Z,44.00
2023-03-03T05:56:21.672Z,47.20
2023-03-03T05:58:52.478Z,44.80
2023-03-03T06:01:23.185Z,45.90
2023-03-03T06:03:54.176Z,42.10
2023-03-03T06:06:25.195Z,41.60
2023-03-03T06:08:57.268Z,44.10
2023-03-03T06:11:28.096Z,44.20
2023-03-03T06:13:59.251Z,43.60
2023-03-03T06:16:30.216Z,47.30
2023-03-03T06:19:01.471Z,47.70
2023-03-03T06:21:32.290Z,49.30
2023-03-03T06:24:03.005Z,48.90
2023-03-03T06:26:34.159Z,43.80
2023-03-03T06:29:04.916Z,45.20
2023-03-03T06:31:35.829Z,45.90
2023-03-03T06:34:06.698Z,43.30
2023-03-03T06:36:37.563Z,40.30
2023-03-03T06:39:08.719Z,38.80
2023-03-03T06:41:40.859Z,37.50
2023-03-03T06:44:13.005Z,35.50
2023-03-03T06:46:43.852Z,36.70
2023-03-03T06:49:14.554Z,36.80
2023-03-03T06:51:46.550Z,39.70
2023-03-03T06:54:19.944Z,38.90
2023-03-03T06:56:55.077Z,37.30
2023-03-03T06:59:28.155Z,34.80
2023-03-03T07:02:02.813Z,34.70
2023-03-03T07:04:37.111Z,33.80
2023-03-03T07:07:21.433Z,31.30
2023-03-03T07:09:54.789Z,26.50
2023-03-03T07:12:27.838Z,30.90
2023-03-03T07:15:16.108Z,26.70
2023-03-03T07:17:51.128Z,26.80
2023-03-03T07:22:54.781Z,20.00
2023-03-03T07:25:32.057Z,27.10
2023-03-03T07:28:20.464Z,27.20
2023-03-03T07:30:52.003Z,28.80
2023-03-03T07:33:28.341Z,30.30
2023-03-03T07:36:01.234Z,28.20
2023-03-03T07:38:41.992Z,31.30
2023-03-03T07:41:21.010Z,31.10
2023-03-03T07:43:55.757Z,28.10
2023-03-03T07:46:44.807Z,30.60
2023-03-03T07:49:25.578Z,26.70
2023-03-03T07:51:58.628Z,30.70
2023-03-03T07:54:40.556Z,31.60
2023-03-03T07:57:23.683Z,27.80
2023-03-03T08:00:02.124Z,29.10
2023-03-03T08:02:48.615Z,28.50
2023-03-03T08:05:35.967Z,26.70
2023-03-03T08:08:29.449Z,26.10
2023-03-03T08:11:01.538Z,27.70
2023-03-03T08:13:40.516Z,26.70
2023-03-03T08:16:31.681Z,27.50
2023-03-03T08:19:06.120Z,29.40
2023-03-03T08:21:38.812Z,31.70
2023-03-03T08:24:10.281Z,29.30
2023-03-03T08:26:41.608Z,28.90
2023-03-03T08:29:13.326Z,26.20
2023-03-03T08:31:44.748Z,28.60
2023-03-03T08:34:15.887Z,27.00
2023-03-03T08:36:47.543Z,27.60
2023-03-03T08:39:18.694Z,26.90
2023-03-03T08:41:49.732Z,29.40
2023-03-03T08:44:30.117Z,27.70
2023-03-03T08:47:01.367Z,27.60
2023-03-03T08:49:33.088Z,29.80
2023-03-03T08:52:04.978Z,29.60
2023-03-03T08:54:36.937Z,28.30
2023-03-03T08:57:08.116Z,28.30
2023-03-03T08:59:40.778Z,27.30
2023-03-03T09:02:12.002Z,26.20
2023-03-03T09:04:42.955Z,25.50
2023-03-03T09:07:13.845Z,25.50
2023-03-03T09:09:46.341Z,24.80
2023-03-03T09:12:20.255Z,27.40
2023-03-03T09:14:52.269Z,26.90
2023-03-03T09:17:28.283Z,23.60
2023-03-03T09:20:04.361Z,21.80
2023-03-03T09:22:39.675Z,23.50
2023-03-03T09:25:21.670Z,21.80
2023-03-03T09:27:57.714Z,23.40
2023-03-03T09:30:40.430Z,23.50
2023-03-03T09:33:26.235Z,24.20
2023-03-03T09:36:04.574Z,23.40
2023-03-03T09:38:41.513Z,24.90
2023-03-03T09:41:32.464Z,24.30
2023-03-03T09:44:26.588Z,25.00
2023-03-03T09:47:15.301Z,23.60
2023-03-03T09:49:58.536Z,20.60
2023-03-03T09:52:39.499Z,22.50
2023-03-03T09:55:25.697Z,21.80
2023-03-03T09:58:12.134Z,22.80
2023-03-03T10:00:56.585Z,23.30
2023-03-03T10:03:55.443Z,23.20
2023-03-03T10:06:30.142Z,23.40
2023-03-03T10:09:11.710Z,24.00
2023-03-03T10:11:47.745Z,23.10
2023-03-03T10:14:50.533Z,20.80
2023-03-03T10:17:29.650Z,21.30
2023-03-03T10:20:15.081Z,21.00
2023-03-03T10:22:54.597Z,21.00
2023-03-03T10:25:36.210Z,22.50
2023-03-03T10:28:36.791Z,22.20
2023-03-03T10:31:18.546Z,23.10
2023-03-03T10:34:00.735Z,23.10
2023-03-03T10:36:47.800Z,24.30
2023-03-03T10:39:39.876Z,22.50
2023-03-03T10:42:45.622Z,23.50
2023-03-03T10:45:45.699Z,20.90
2023-03-03T10:48:31.688Z,20.20
2023-03-03T10:51:17.532Z,17.50
2023-03-03T10:54:04.258Z,19.50
2023-03-03T10:56:53.359Z,19.00
2023-03-03T10:59:41.313Z,19.90
2023-03-03T11:02:22.462Z,21.80
2023-03-03T11:05:06.867Z,19.70
2023-03-03T11:07:42.303Z,20.60
2023-03-03T11:10:25.723Z,20.90
2023-03-03T11:13:11.521Z,21.20
2023-03-03T11:15:51.832Z,21.50
2023-03-03T11:18:43.591Z,22.20
2023-03-03T11:21:24.385Z,23.70
2023-03-03T11:24:11.936Z,23.90
2023-03-03T11:26:58.683Z,22.20
2023-03-03T11:29:45.369Z,20.80
2023-03-03T11:32:28.587Z,23.00
2023-03-03T11:35:09.371Z,22.20
2023-03-03T11:37:46.997Z,20.90
2023-03-03T11:40:23.454Z,22.80
2023-03-03T11:43:05.106Z,23.50
2023-03-03T11:45:44.985Z,24.10
2023-03-03T11:48:22.448Z,22.20
2023-03-03T11:51:00.213Z,23.70
2023-03-03T11:53:46.376Z,24.10
2023-03-03T11:56:26.100Z,20.50
2023-03-03T11:59:15.253Z,23.50
2023-03-03T12:01:54.275Z,21.70
2023-03-03T12:04:34.276Z,24.40
2023-03-03T12:07:21.689Z,22.30
2023-03-03T12:10:04.068Z,23.60
2023-03-03T12:12:42.193Z,22.20
2023-03-03T12:15:28.895Z,23.40
2023-03-03T12:18:11.350Z,21.40
2023-03-03T12:20:48.990Z,22.90
2023-03-03T12:23:48.202Z,20.30
2023-03-03T12:26:22.245Z,19.70
2023-03-03T12:28:56.534Z,18.00
2023-03-03T12:31:38.805Z,18.30
2023-03-03T12:34:18.962Z,19.60
2023-03-03T12:37:10.914Z,19.50
2023-03-03T12:39:53.210Z,18.10
2023-03-03T12:42:35.080Z,20.10
2023-03-03T12:45:20.409Z,20.80
2023-03-03T12:47:57.907Z,22.00
2023-03-03T12:50:44.875Z,21.20
2023-03-03T12:53:32.378Z,19.10
2023-03-03T12:56:08.097Z,19.30
2023-03-03T12:58:51.416Z,19.20
2023-03-03T13:01:40.135Z,21.10
2023-03-03T13:04:18.442Z,18.60
2023-03-03T13:06:55.012Z,20.30
2023-03-03T13:09:41.628Z,19.40
2023-03-03T13:12:29.797Z,18.90
2023-03-03T13:15:12.627Z,17.70
2023-03-03T13:20:31.941Z,19.70
2023-03-03T13:23:09.816Z,20.60
2023-03-03T13:25:51.761Z,21.80
2023-03-03T13:28:31.877Z,20.70
2023-03-03T13:31:10.162Z,19.80
2023-03-03T13:33:49.026Z,20.80
2023-03-03T13:36:21.237Z,20.30
2023-03-03T13:38:56.925Z,18.10
2023-03-03T13:41:34.940Z,19.90
2023-03-03T13:44:12.356Z,22.30
2023-03-03T13:46:50.633Z,19.10
2023-03-03T13:49:34.838Z,22.00
2023-03-03T13:52:10.824Z,20.00
2023-03-03T13:54:53.035Z,20.60
2023-03-03T13:57:37.619Z,21.90
2023-03-03T14:00:22.720Z,21.60
2023-03-03T14:03:11.597Z,25.10
2023-03-03T14:05:46.358Z,21.00
2023-03-03T14:08:27.350Z,20.40
2023-03-03T14:11:11.548Z,20.40
2023-03-03T14:13:52.723Z,18.70
2023-03-03T14:16:38.719Z,20.10
2023-03-03T14:19:17.429Z,18.80
2023-03-03T14:22:00.030Z,18.40
2023-03-03T14:24:31.184Z,19.20
2023-03-03T14:27:22.716Z,18.40
2023-03-03T14:29:54.626Z,18.90
2023-03-03T14:32:43.198Z,17.80
2023-03-03T14:35:22.549Z,18.80
2023-03-03T14:37:53.511Z,17.20
2023-03-03T14:40:32.534Z,19.30
2023-03-03T14:43:08.014Z,17.70
2023-03-03T14:45:41.046Z,16.90
2023-03-03T14:48:19.234Z,17.00
2023-03-03T14:50:54.696Z,18.50
2023-03-03T14:53:35.466Z,16.40
2023-03-03T14:56:25.187Z,15.70
2023-03-03T14:59:13.956Z,17.70
2023-03-03T15:01:44.848Z,16.70
2023-03-03T15:04:28.729Z,17.20
2023-03-03T15:07:00.532Z,17.20
2023-03-03T15:09:38.454Z,16.70
2023-03-03T15:12:23.814Z,18.10
2023-03-03T15:15:03.986Z,17.90
2023-03-03T15:17:39.573Z,16.90
2023-03-03T15:20:25.917Z,14.90
2023-03-03T15:23:06.345Z,16.00
2023-03-03T15:25:50.899Z,15.50
2023-03-03T15:28:36.838Z,14.70
2023-03-03T15:31:16.053Z,13.50
2023-03-03T15:33:58.041Z,14.10
2023-03-03T15:36:39.067Z,12.90
2023-03-03T15:39:22.320Z,13.40
2023-03-03T15:42:06.034Z,13.90
2023-03-03T15:44:53.686Z,12.50
2023-03-03T15:47:48.787Z,13.60
2023-03-03T15:50:33.973Z,14.00
2023-03-03T15:53:18.716Z,13.70
2023-03-03T15:56:05.808Z,13.30
2023-03-03T15:58:52.770Z,12.30
2023-03-03T16:01:28.644Z,13.90
2023-03-03T16:04:05.464Z,13.50
2023-03-03T16:06:48.300Z,13.60
2023-03-03T16:09:33.346Z,14.70
2023-03-03T16:12:14.781Z,13.00
2023-03-03T16:14:57.921Z,12.40
2023-03-03T16:17:35.783Z,14.30
2023-03-03T16:20:20.784Z,14.00
2023-03-03T16:23:15.705Z,13.10
2023-03-03T16:25:59.749Z,15.20
2023-03-03T16:28:44.457Z,14.90
2023-03-03T16:31:22.471Z,15.20
2023-03-03T16:34:04.203Z,16.20
2023-03-03T16:36:48.430Z,14.30
2023-03-03T16:39:30.101Z,16.70
2023-03-03T16:42:10.451Z,15.60
2023-03-03T16:44:50.490Z,17.10
2023-03-03T16:47:37.503Z,16.80
2023-03-03T16:50:26.424Z,17.50
2023-03-03T16:53:10.870Z,18.60
2023-03-03T16:55:52.065Z,17.70
2023-03-03T16:58:34.351Z,19.60
2023-03-03T17:01:16.065Z,18.00
2023-03-03T17:04:00.455Z,18.00
2023-03-03T17:06:50.380Z,18.80
2023-03-03T17:09:39.667Z,18.30
2023-03-03T17:12:36.969Z,18.60
2023-03-03T17:15:30.928Z,19.00
2023-03-03T17:18:12.510Z,20.10
2023-03-03T17:20:52.809Z,18.10
2023-03-03T17:23:53.773Z,19.30
2023-03-03T17:26:38.554Z,19.00
2023-03-03T17:29:25.825Z,19.80
2023-03-03T17:32:08.611Z,17.20
2023-03-03T17:34:50.929Z,17.80
2023-03-03T17:37:33.803Z,16.60
2023-03-03T17:40:19.788Z,16.40
2023-03-03T17:42:58.456Z,16.60
2023-03-03T17:45:36.470Z,18.50
2023-03-03T17:48:42.043Z,16.70
2023-03-03T17:51:41.594Z,19.80
2023-03-03T17:54:41.937Z,17.20
2023-03-03T17:57:30.185Z,19.60
2023-03-03T18:00:19.256Z,18.10
2023-03-03T18:03:18.471Z,17.20
2023-03-03T18:06:19.329Z,17.60
2023-03-03T18:09:20.037Z,16.40
2023-03-03T18:12:11.842Z,17.50
2023-03-03T18:15:18.455Z,17.40
2023-03-03T18:18:05.012Z,17.70
2023-03-03T18:21:01.197Z,16.40
2023-03-03T18:23:42.219Z,17.00
2023-03-03T18:26:39.419Z,16.00
2023-03-03T18:29:21.541Z,16.70
2023-03-03T18:32:04.735Z,19.80
2023-03-03T18:34:40.494Z,18.90
2023-03-03T18:37:45.666Z,19.30
2023-03-03T18:40:30.833Z,19.70
2023-03-03T18:43:40.617Z,18.40
2023-03-03T18:46:33.529Z,19.50
2023-03-03T18:49:07.402Z,21.50
2023-03-03T18:52:14.980Z,18.60
2023-03-03T18:55:00.040Z,17.60
2023-03-03T18:57:31.664Z,18.00
2023-03-03T19:00:15.775Z,18.60
2023-03-03T19:02:55.571Z,18.70
2023-03-03T19:05:30.870Z,20.60
2023-03-03T19:10:53.183Z,19.40
2023-03-03T19:13:48.079Z,17.70
2023-03-03T19:16:36.849Z,16.90
2023-03-03T19:19:14.905Z,18.50
2023-03-03T19:21:51.251Z,18.80
2023-03-03T19:24:36.019Z,18.60
2023-03-03T19:27:26.794Z,16.80
2023-03-03T19:30:22.510Z,17.80
2023-03-03T19:33:18.650Z,18.50
2023-03-03T19:36:00.307Z,19.30
2023-03-03T19:38:40.181Z,21.10
2023-03-03T19:41:28.955Z,20.70
2023-03-03T19:44:14.174Z,20.00
2023-03-03T19:47:00.138Z,23.90
2023-03-03T19:49:59.850Z,23.00
2023-03-03T19:52:37.931Z,20.30
2023-03-03T19:55:28.356Z,19.50
2023-03-03T19:58:14.367Z,18.60
2023-03-03T20:00:48.379Z,20.30
2023-03-03T20:03:49.312Z,21.10
2023-03-03T20:06:33.424Z,18.50
2023-03-03T20:09:09.732Z,20.20
2023-03-03T20:11:59.300Z,19.00
2023-03-03T20:14:46.035Z,18.50
2023-03-03T20:17:33.210Z,19.80
2023-03-03T20:20:10.519Z,19.90
2023-03-03T20:22:49.781Z,18.30
2023-03-03T20:25:30.909Z,18.60
2023-03-03T20:28:21.588Z,21.70
2023-03-03T20:31:05.996Z,21.70
2023-03-03T20:33:50.964Z,21.00
2023-03-03T20:36:30.221Z,18.30
2023-03-03T20:39:09.018Z,18.20
2023-03-03T20:41:58.805Z,19.60
2023-03-03T20:44:44.135Z,20.00
2023-03-03T20:47:27.400Z,19.00
2023-03-03T20:50:15.491Z,18.10
2023-03-03T20:52:59.322Z,19.90
2023-03-03T20:55:46.456Z,20.00
2023-03-03T20:58:25.802Z,20.40
2023-03-03T21:01:04.367Z,18.50
2023-03-03T21:03:37.751Z,20.90
2023-03-03T21:06:15.231Z,24.00
2023-03-03T21:08:53.694Z,23.50
2023-03-03T21:11:41.145Z,24.50
2023-03-03T21:14:21.319Z,25.50
2023-03-03T21:16:54.421Z,24.10
2023-03-03T21:19:31.505Z,24.80
2023-03-03T21:22:04.576Z,26.30
2023-03-03T21:24:53.610Z,24.20
2023-03-03T21:27:30.449Z,24.40
2023-03-03T21:30:12.329Z,24.60
2023-03-03T21:32:49.201Z,23.10
2023-03-03T21:35:22.626Z,21.80
2023-03-03T21:37:55.307Z,22.40
2023-03-03T21:40:29.212Z,21.10
2023-03-03T21:43:01.393Z,22.60
2023-03-03T21:45:33.015Z,22.30
2023-03-03T21:48:07.410Z,22.50
2023-03-03T21:50:41.336Z,22.20
2023-03-03T21:53:12.891Z,23.20
2023-03-03T21:55:48.774Z,22.60
2023-03-03T21:58:20.625Z,21.10
2023-03-03T22:00:51.825Z,21.40
2023-03-03T22:03:26.121Z,21.00
2023-03-03T22:05:57.862Z,24.50
2023-03-03T22:08:32.443Z,23.80
2023-03-03T22:11:03.972Z,21.70
2023-03-03T22:13:35.266Z,24.70
2023-03-03T22:16:07.837Z,23.60
2023-03-03T22:18:39.091Z,21.90
2023-03-03T22:21:10.111Z,22.70
2023-03-03T22:23:41.325Z,21.90
2023-03-03T22:26:12.473Z,22.80
2023-03-03T22:28:44.493Z,22.70
2023-03-03T22:31:15.817Z,22.30
2023-03-03T22:33:47.440Z,21.10
2023-03-03T22:36:19.590Z,21.50
2023-03-03T22:38:51.225Z,21.20
2023-03-03T22:41:22.503Z,22.40
2023-03-03T22:43:56.698Z,22.10
2023-03-03T22:46:27.859Z,23.10
2023-03-03T22:48:59.033Z,26.10
2023-03-03T22:51:30.144Z,24.80
2023-03-03T22:54:01.407Z,24.20
2023-03-03T22:56:32.398Z,26.30
2023-03-03T22:59:03.717Z,25.00
2023-03-03T23:01:35.069Z,23.40
2023-03-03T23:04:06.491Z,22.80
2023-03-03T23:06:37.442Z,21.70
2023-03-03T23:09:08.892Z,23.40
2023-03-03T23:11:39.944Z,20.50
2023-03-03T23:14:11.165Z,19.00
2023-03-03T23:16:42.153Z,18.50
2023-03-03T23:19:13.142Z,19.60
2023-03-03T23:21:44.116Z,18.90
2023-03-03T23:24:15.186Z,18.60
2023-03-03T23:26:46.373Z,19.70
2023-03-03T23:29:17.389Z,19.20
2023-03-03T23:31:48.378Z,19.30
2023-03-03T23:34:19.457Z,17.00
2023-03-03T23:36:50.437Z,17.10
2023-03-03T23:39:21.682Z,18.60
2023-03-03T23:41:52.588Z,18.20
2023-03-03T23:44:23.706Z,18.10
2023-03-03T23:46:54.742Z,18.10
2023-03-03T23:49:25.751Z,18.40
2023-03-03T23:51:56.823Z,18.60
2023-03-03T23:54:28.056Z,18.20
2023-03-03T23:56:59.464Z,17.70
2023-03-03T23:59:30.421Z,15.70
